Time;durP1;ratioP1;P1;durP2;ratioP2;P2;SDS_P1;SDS_P2;PMS_P1;PMS_P2;Temp;Humidity;BMP_temperature;BMP_pressure;BME280_temperature;BME280_humidity;BME280_pressure;Samples;Min_cycle;Max_cycle;Signal;HPM_P1;HPM_P2
2023/01/23 00:01:04;;;;;;;72.57;39.10;;;4.00;99.90;;;;;;5048159;28;20018;-73
2023/01/23 00:03:32;;;;;;;78.57;38.17;;;4.00;99.90;;;;;;5047723;28;20049;-74
2023/01/23 00:05:59;;;;;;;74.47;37.40;;;3.90;99.90;;;;;;5053300;28;20052;-73
2023/01/23 00:08:25;;;;;;;94.43;42.20;;;3.90;99.90;;;;;;5053757;28;20376;-74
2023/01/23 00:10:51;;;;;;;63.60;36.78;;;3.90;99.90;;;;;;5053388;28;20021;-74
2023/01/23 00:13:17;;;;;;;71.13;39.40;;;4.00;99.90;;;;;;5048145;28;20034;-74
2023/01/23 00:15:43;;;;;;;75.35;38.28;;;4.00;99.90;;;;;;5052148;28;20021;-74
2023/01/23 00:18:09;;;;;;;89.70;42.42;;;4.00;99.90;;;;;;5053216;28;20043;-74
2023/01/23 00:20:39;;;;;;;67.43;37.72;;;4.10;99.90;;;;;;5053411;28;20090;-74
2023/01/23 00:23:05;;;;;;;61.83;35.42;;;4.10;99.90;;;;;;5053165;28;20384;-73
2023/01/23 00:25:33;;;;;;;69.63;37.80;;;4.10;99.90;;;;;;5053077;28;20032;-74
2023/01/23 00:27:59;;;;;;;79.47;38.53;;;4.10;99.90;;;;;;5053372;28;20029;-73
2023/01/23 00:30:25;;;;;;;64.45;35.15;;;4.10;99.90;;;;;;5046266;28;20071;-73
2023/01/23 00:32:51;;;;;;;67.30;36.08;;;4.10;99.90;;;;;;5058496;28;20028;-73
2023/01/23 00:35:17;;;;;;;63.88;36.15;;;4.20;99.90;;;;;;5053731;28;20036;-74
2023/01/23 00:37:43;;;;;;;66.80;36.22;;;4.30;99.90;;;;;;5053040;28;20025;-74
2023/01/23 00:40:10;;;;;;;74.50;38.22;;;4.30;99.90;;;;;;5051335;28;20416;-74
2023/01/23 00:42:37;;;;;;;66.82;35.92;;;4.40;99.90;;;;;;5052835;28;20483;-74
2023/01/23 00:45:03;;;;;;;226.35;66.03;;;4.40;99.90;;;;;;5051447;28;20025;-75
2023/01/23 00:47:29;;;;;;;93.18;41.75;;;4.40;99.90;;;;;;5056422;28;20048;-73
2023/01/23 00:49:57;;;;;;;71.05;36.38;;;4.40;99.90;;;;;;5052347;28;20032;-74
2023/01/23 00:52:25;;;;;;;91.30;39.70;;;4.40;99.90;;;;;;5051781;28;20115;-74
2023/01/23 00:54:52;;;;;;;67.55;35.92;;;4.30;99.90;;;;;;5055176;28;20037;-74
2023/01/23 00:57:18;;;;;;;63.85;36.58;;;4.30;99.90;;;;;;5051155;28;20025;-73
2023/01/23 00:59:45;;;;;;;68.22;35.40;;;4.30;99.90;;;;;;5052900;28;20074;-73
2023/01/23 01:02:11;;;;;;;62.60;36.22;;;4.30;99.90;;;;;;5052569;28;20025;-74
2023/01/23 01:04:37;;;;;;;84.72;37.67;;;4.30;99.90;;;;;;5051267;28;20036;-73
2023/01/23 01:07:03;;;;;;;90.65;39.83;;;4.30;99.90;;;;;;5057988;28;20074;-73
2023/01/23 01:09:29;;;;;;;72.88;36.03;;;4.30;99.90;;;;;;5051887;28;20483;-73
2023/01/23 01:11:55;;;;;;;63.42;38.17;;;4.30;99.90;;;;;;5051261;28;20029;-73
2023/01/23 01:14:21;;;;;;;69.07;34.83;;;4.40;99.90;;;;;;5052075;28;20056;-73
2023/01/23 01:16:47;;;;;;;79.43;37.75;;;4.40;99.90;;;;;;5052386;28;20051;-73
2023/01/23 01:19:15;;;;;;;87.95;39.35;;;4.40;99.90;;;;;;5056035;28;20068;-74
2023/01/23 01:21:41;;;;;;;123.82;49.40;;;4.50;99.90;;;;;;5083604;28;20029;-73
2023/01/23 01:24:08;;;;;;;92.75;45.55;;;4.40;99.90;;;;;;5051628;28;20021;-73
2023/01/23 01:26:34;;;;;;;127.18;51.92;;;4.40;99.90;;;;;;5053303;28;20475;-73
2023/01/23 01:29:01;;;;;;;84.97;46.38;;;4.40;99.90;;;;;;5051977;28;20385;-73
2023/01/23 01:31:27;;;;;;;84.90;47.67;;;4.40;99.90;;;;;;5055101;28;20094;-73
2023/01/23 01:33:53;;;;;;;91.30;46.28;;;4.50;99.90;;;;;;5051927;28;20040;-74
2023/01/23 01:36:21;;;;;;;93.43;51.20;;;4.50;99.90;;;;;;5050303;28;20384;-73
2023/01/23 01:38:47;;;;;;;93.13;46.10;;;4.50;99.90;;;;;;5050724;28;20025;-74
2023/01/23 01:41:15;;;;;;;95.90;47.00;;;4.50;99.90;;;;;;5067554;28;20469;-73
2023/01/23 01:43:41;;;;;;;77.68;41.97;;;4.50;99.90;;;;;;5051729;28;20488;-73
2023/01/23 01:46:13;;;;;;;86.13;42.78;;;4.50;99.90;;;;;;5067451;28;20415;-73
2023/01/23 01:48:50;;;;;;;74.50;39.22;;;4.50;99.90;;;;;;5038098;28;20068;-73
2023/01/23 01:51:27;;;;;;;99.18;45.97;;;4.50;99.90;;;;;;5051677;28;20120;-73
2023/01/23 01:53:59;;;;;;;87.93;42.45;;;4.50;99.90;;;;;;5055591;28;20456;-72
2023/01/23 01:56:29;;;;;;;152.10;50.10;;;4.50;99.90;;;;;;5059595;28;20078;-72
2023/01/23 01:58:56;;;;;;;94.45;41.60;;;4.30;99.90;;;;;;5051862;28;20568;-73
2023/01/23 02:01:23;;;;;;;97.63;47.20;;;4.40;99.90;;;;;;5051935;28;20040;-73
2023/01/23 02:03:51;;;;;;;110.38;42.67;;;4.40;99.90;;;;;;5050429;28;20426;-73
2023/01/23 02:06:17;;;;;;;78.35;38.05;;;4.30;99.90;;;;;;5051110;28;20079;-72
2023/01/23 02:09:09;;;;;;;76.05;40.58;;;4.40;99.90;;;;;;5051808;28;20028;-72
2023/01/23 02:11:36;;;;;;;70.15;39.97;;;4.40;99.90;;;;;;5071185;28;20055;-72
2023/01/23 02:14:02;;;;;;;80.82;42.28;;;4.40;99.90;;;;;;5053704;28;20519;-73
2023/01/23 02:16:32;;;;;;;90.38;43.25;;;4.40;99.90;;;;;;5042451;28;20028;-72
2023/01/23 02:19:06;;;;;;;79.38;42.90;;;4.50;99.90;;;;;;5064991;28;20048;-73
2023/01/23 02:21:33;;;;;;;125.75;49.60;;;4.50;99.90;;;;;;5058805;28;20033;-73
2023/01/23 02:24:30;;;;;;;77.07;40.22;;;4.50;99.90;;;;;;5069470;28;20025;-73
2023/01/23 02:26:57;;;;;;;80.70;40.75;;;4.50;99.90;;;;;;5050622;28;20075;-74
2023/01/23 02:29:25;;;;;;;106.32;45.05;;;4.50;99.90;;;;;;5070498;28;20025;-73
2023/01/23 02:31:54;;;;;;;91.97;43.65;;;4.40;99.90;;;;;;5054282;28;20527;-73
2023/01/23 02:34:24;;;;;;;81.95;42.75;;;4.40;99.90;;;;;;5054189;28;20037;-72
2023/01/23 02:36:51;;;;;;;213.32;65.90;;;4.40;99.90;;;;;;5070370;28;20025;-73
2023/01/23 02:39:18;;;;;;;106.85;50.55;;;4.20;99.90;;;;;;5055527;28;20036;-73
2023/01/23 02:41:50;;;;;;;125.95;60.65;;;4.20;99.90;;;;;;5053618;28;20032;-74
2023/01/23 02:44:25;;;;;;;91.45;47.88;;;4.20;99.90;;;;;;5070550;28;20033;-73
2023/01/23 02:46:58;;;;;;;100.28;50.25;;;4.30;99.90;;;;;;5070026;28;20017;-73
2023/01/23 02:49:26;;;;;;;99.95;49.53;;;4.20;99.90;;;;;;5053781;28;20036;-73
2023/01/23 02:51:53;;;;;;;84.07;45.97;;;4.20;99.90;;;;;;5070494;28;20384;-73
2023/01/23 02:54:20;;;;;;;98.93;49.47;;;4.30;99.90;;;;;;5070095;28;20044;-74
2023/01/23 02:56:46;;;;;;;99.60;48.47;;;4.40;99.90;;;;;;5067082;28;20030;-73
2023/01/23 03:01:56;;;;;;;89.25;42.53;;;4.40;99.90;;;;;;5070100;28;20033;-74
2023/01/23 03:04:23;;;;;;;82.78;41.17;;;4.40;99.90;;;;;;5070530;28;20029;-73
2023/01/23 03:06:49;;;;;;;102.20;46.00;;;4.40;99.90;;;;;;5054637;28;20033;-73
2023/01/23 03:09:16;;;;;;;327.20;79.05;;;4.30;99.90;;;;;;5054715;28;20502;-73
2023/01/23 03:11:44;;;;;;;103.50;39.40;;;4.00;99.90;;;;;;5054687;28;20049;-73
2023/01/23 03:14:13;;;;;;;87.32;36.50;;;4.10;99.90;;;;;;5069818;28;20040;-73
2023/01/23 03:16:41;;;;;;;72.88;37.95;;;4.10;99.90;;;;;;5053079;28;20052;-73
2023/01/23 03:19:08;;;;;;;79.07;38.17;;;4.20;99.90;;;;;;5069449;28;20049;-73
2023/01/23 03:21:38;;;;;;;79.38;42.80;;;4.20;99.90;;;;;;5069772;28;20488;-73
2023/01/23 03:24:05;;;;;;;95.47;41.22;;;4.30;99.90;;;;;;5052981;28;20025;-73
2023/01/23 03:26:32;;;;;;;87.88;37.28;;;4.20;99.90;;;;;;5069768;28;20035;-72
2023/01/23 03:31:43;;;;;;;89.72;38.60;;;4.30;99.90;;;;;;5069781;28;20029;-72
2023/01/23 03:34:09;;;;;;;69.30;35.28;;;4.30;99.90;;;;;;5069528;28;20033;-72
2023/01/23 03:36:36;;;;;;;76.43;37.40;;;4.30;99.90;;;;;;5069360;28;20032;-73
2023/01/23 03:41:49;;;;;;;85.25;40.50;;;4.50;99.90;;;;;;5069349;28;20027;-73
2023/01/23 03:44:18;;;;;;;87.60;39.80;;;4.50;99.90;;;;;;5053066;28;20025;-73
2023/01/23 03:46:46;;;;;;;86.25;38.13;;;4.50;99.90;;;;;;5069188;28;20480;-73
2023/01/23 03:49:11;;;;;;;84.50;36.67;;;4.50;99.90;;;;;;5052548;28;20060;-73
2023/01/23 03:51:37;;;;;;;115.45;44.65;;;4.50;99.90;;;;;;5069423;28;20132;-73
2023/01/23 03:54:03;;;;;;;130.60;44.45;;;4.40;99.90;;;;;;5069234;28;20484;-74
2023/01/23 03:56:29;;;;;;;86.80;40.30;;;4.30;99.90;;;;;;5069432;28;20506;-73
2023/01/23 03:58:56;;;;;;;165.00;47.85;;;4.20;99.90;;;;;;5069034;28;20035;-73
2023/01/23 04:01:22;;;;;;;109.88;35.80;;;4.20;99.90;;;;;;5053680;28;20120;-73
2023/01/23 04:03:49;;;;;;;88.72;35.13;;;4.20;99.90;;;;;;5054718;28;20035;-72
2023/01/23 04:06:15;;;;;;;116.57;39.03;;;4.20;99.90;;;;;;5052444;28;20049;-72
2023/01/23 04:08:42;;;;;;;195.13;50.35;;;4.10;99.90;;;;;;5052203;28;20021;-72
2023/01/23 04:11:10;;;;;;;187.13;52.10;;;4.10;99.90;;;;;;5068869;28;20037;-72
2023/01/23 04:13:36;;;;;;;291.25;69.85;;;4.00;99.90;;;;;;5068954;28;20037;-72
2023/01/23 04:16:03;;;;;;;108.20;38.05;;;4.00;99.90;;;;;;5068173;28;20112;-72
2023/01/23 04:18:29;;;;;;;115.60;36.42;;;4.00;99.90;;;;;;5066326;28;20045;-73
2023/01/23 04:20:56;;;;;;;121.22;43.50;;;4.00;99.90;;;;;;5068877;28;20044;-73
2023/01/23 04:23:23;;;;;;;145.88;47.20;;;3.90;99.90;;;;;;5068798;28;20021;-73
2023/01/23 04:25:49;;;;;;;178.75;46.40;;;3.90;99.90;;;;;;5051961;28;20036;-73
2023/01/23 04:28:16;;;;;;;189.73;49.65;;;3.90;99.90;;;;;;5052992;28;20067;-73
2023/01/23 04:30:45;;;;;;;161.18;47.38;;;3.80;99.90;;;;;;5065853;28;20033;-73
2023/01/23 04:33:19;;;;;;;270.98;63.20;;;3.90;99.90;;;;;;5051366;28;20037;-73
2023/01/23 04:36:06;;;;;;;140.90;49.50;;;3.90;99.90;;;;;;5051886;28;20029;-74
2023/01/23 04:38:34;;;;;;;115.05;43.72;;;4.00;99.90;;;;;;5051253;28;20029;-74
2023/01/23 04:41:26;;;;;;;109.13;41.95;;;4.10;99.90;;;;;;5068197;28;20025;-74
2023/01/23 04:44:18;;;;;;;122.90;47.15;;;4.10;99.90;;;;;;5051896;28;20484;-74
2023/01/23 04:46:59;;;;;;;115.13;43.88;;;4.10;99.90;;;;;;5056865;28;20033;-73
2023/01/23 04:49:27;;;;;;;107.65;42.65;;;4.20;99.90;;;;;;5051461;28;20030;-73
2023/01/23 04:51:53;;;;;;;150.15;51.78;;;4.20;99.90;;;;;;5065045;28;20397;-73
2023/01/23 04:54:23;;;;;;;166.95;53.08;;;4.10;99.90;;;;;;5057056;28;20041;-73
2023/01/23 04:56:49;;;;;;;133.93;46.50;;;4.10;99.90;;;;;;5057818;28;20469;-73
2023/01/23 04:59:17;;;;;;;140.35;44.83;;;4.20;99.90;;;;;;5042006;28;20032;-73
2023/01/23 05:01:44;;;;;;;140.55;47.83;;;4.20;99.90;;;;;;5040119;28;20025;-73
2023/01/23 05:04:10;;;;;;;187.38;56.35;;;4.20;99.90;;;;;;5051345;28;20094;-73
2023/01/23 05:06:37;;;;;;;188.80;53.60;;;4.20;99.90;;;;;;5052342;28;20443;-73
2023/01/23 05:09:04;;;;;;;259.17;62.05;;;4.30;99.90;;;;;;5067500;28;20033;-73
2023/01/23 05:11:39;;;;;;;137.02;47.53;;;4.20;99.90;;;;;;5067695;28;20062;-73
2023/01/23 05:14:06;;;;;;;208.98;52.13;;;4.30;99.90;;;;;;5067821;28;20071;-73
2023/01/23 05:16:33;;;;;;;111.63;41.85;;;4.30;99.90;;;;;;5054866;28;20025;-72
2023/01/23 05:19:18;;;;;;;217.95;58.67;;;4.40;99.90;;;;;;5040114;28;20049;-71
2023/01/23 05:21:44;;;;;;;146.02;50.08;;;4.30;99.90;;;;;;5050858;28;20120;-73
2023/01/23 05:24:16;;;;;;;121.18;44.28;;;4.40;99.90;;;;;;5067451;28;20107;-73
2023/01/23 05:26:44;;;;;;;128.88;47.80;;;4.40;99.90;;;;;;5050858;28;20025;-73
2023/01/23 05:29:10;;;;;;;138.25;48.92;;;4.50;99.90;;;;;;5067926;28;20029;-72
2023/01/23 05:31:44;;;;;;;96.15;45.70;;;4.50;99.90;;;;;;5050832;28;20032;-72
2023/01/23 05:34:28;;;;;;;109.95;47.78;;;4.60;99.90;;;;;;5052180;28;20094;-72
2023/01/23 05:36:56;;;;;;;133.95;53.78;;;4.60;99.90;;;;;;5067329;28;20033;-72
2023/01/23 05:39:22;;;;;;;127.90;49.15;;;4.60;99.90;;;;;;5050641;28;20028;-72
2023/01/23 05:41:48;;;;;;;110.00;48.90;;;4.70;99.90;;;;;;5050946;28;20112;-73
2023/01/23 05:44:30;;;;;;;116.88;48.05;;;4.70;99.90;;;;;;5050480;28;20036;-72
2023/01/23 05:47:03;;;;;;;180.52;58.75;;;4.70;99.90;;;;;;5067336;28;20036;-72
2023/01/23 05:49:29;;;;;;;91.53;44.97;;;4.60;99.90;;;;;;5054353;28;20021;-72
2023/01/23 05:51:56;;;;;;;103.28;45.22;;;4.70;99.90;;;;;;5057321;28;20029;-72
2023/01/23 05:54:24;;;;;;;115.03;50.53;;;4.70;99.90;;;;;;5067315;28;20036;-73
2023/01/23 05:56:51;;;;;;;126.95;52.63;;;4.70;99.90;;;;;;5067060;28;20048;-72
2023/01/23 05:59:35;;;;;;;110.95;49.00;;;4.70;99.90;;;;;;5038675;28;20033;-74
2023/01/23 06:02:24;;;;;;;115.38;52.63;;;4.70;99.90;;;;;;5045892;28;20052;-72
2023/01/23 06:05:08;;;;;;;102.22;52.85;;;4.80;99.90;;;;;;5051756;28;20087;-72
2023/01/23 06:07:54;;;;;;;132.52;58.22;;;4.80;99.90;;;;;;5051074;28;20095;-73
2023/01/23 06:10:20;;;;;;;127.40;57.75;;;4.90;99.90;;;;;;5037708;28;20444;-72
2023/01/23 06:12:46;;;;;;;103.20;54.70;;;4.90;99.90;;;;;;5050067;28;20025;-72
2023/01/23 06:15:12;;;;;;;113.93;58.00;;;4.90;99.90;;;;;;5051785;28;20029;-73
2023/01/23 06:17:38;;;;;;;126.97;56.00;;;4.90;99.90;;;;;;5050151;28;20017;-72
2023/01/23 06:20:04;;;;;;;120.40;50.38;;;4.90;99.90;;;;;;5067100;28;20427;-72
2023/01/23 06:22:31;;;;;;;132.35;52.50;;;4.80;99.90;;;;;;5050006;28;20021;-72
2023/01/23 06:25:11;;;;;;;126.63;51.33;;;4.80;99.90;;;;;;5035625;28;20033;-75
2023/01/23 06:27:37;;;;;;;130.23;53.05;;;4.80;99.90;;;;;;5050471;28;20029;-72
2023/01/23 06:30:07;;;;;;;126.03;61.67;;;4.80;99.90;;;;;;5066768;28;20025;-73
2023/01/23 06:32:37;;;;;;;155.82;68.93;;;4.90;99.90;;;;;;5050304;28;20484;-72
2023/01/23 06:35:05;;;;;;;121.10;58.92;;;4.90;99.90;;;;;;5051224;28;20574;-72
2023/01/23 06:37:35;;;;;;;239.48;77.97;;;4.90;99.90;;;;;;5050205;28;20029;-73
2023/01/23 06:40:02;;;;;;;133.93;61.30;;;4.80;99.90;;;;;;5066854;28;20021;-72
2023/01/23 06:42:28;;;;;;;188.80;75.68;;;4.80;99.90;;;;;;5052392;28;20017;-73
2023/01/23 06:44:54;;;;;;;112.50;55.92;;;4.70;99.90;;;;;;5049616;28;20511;-72
2023/01/23 06:47:23;;;;;;;104.75;52.33;;;4.80;99.90;;;;;;5049697;28;20074;-73
2023/01/23 06:49:57;;;;;;;121.45;53.95;;;4.70;99.90;;;;;;5050090;28;20075;-73
2023/01/23 06:52:25;;;;;;;97.68;47.70;;;4.70;99.90;;;;;;5066455;28;20442;-73
2023/01/23 06:54:50;;;;;;;232.18;62.90;;;4.70;99.90;;;;;;5049862;28;20033;-72
2023/01/23 06:57:17;;;;;;;105.57;44.90;;;4.70;99.90;;;;;;5067011;28;20477;-72
2023/01/23 06:59:44;;;;;;;202.43;64.68;;;4.70;99.90;;;;;;5049375;28;20025;-72
2023/01/23 07:02:13;;;;;;;117.60;44.17;;;4.60;99.90;;;;;;5048321;28;20023;-71
2023/01/23 07:04:44;;;;;;;115.15;43.05;;;4.60;99.90;;;;;;5052692;28;20033;-71
2023/01/23 07:07:11;;;;;;;294.55;67.63;;;4.60;99.90;;;;;;5063835;28;20116;-72
2023/01/23 07:09:38;;;;;;;361.42;86.78;;;4.60;99.90;;;;;;5053350;28;20020;-72
2023/01/23 07:12:09;;;;;;;348.08;86.05;;;4.60;99.90;;;;;;5067291;28;20025;-75
2023/01/23 07:14:35;;;;;;;336.98;83.07;;;4.60;99.90;;;;;;5053058;28;20442;-72
2023/01/23 07:17:01;;;;;;;144.38;44.67;;;4.60;99.90;;;;;;5069467;28;20021;-72
2023/01/23 07:19:27;;;;;;;106.25;48.92;;;4.60;99.90;;;;;;5040725;28;20057;-72
2023/01/23 07:21:59;;;;;;;92.60;49.40;;;4.70;99.90;;;;;;5054061;28;20155;-73
2023/01/23 07:24:28;;;;;;;100.32;52.17;;;4.70;99.90;;;;;;5054522;28;20031;-72
2023/01/23 07:26:54;;;;;;;73.63;39.42;;;4.70;99.90;;;;;;5054332;28;20048;-72
2023/01/23 07:29:20;;;;;;;67.63;36.40;;;4.80;99.90;;;;;;5054680;28;20044;-72
2023/01/23 07:31:46;;;;;;;56.53;34.35;;;4.80;99.90;;;;;;5053834;28;20048;-72
2023/01/23 07:34:12;;;;;;;63.47;34.42;;;4.90;99.90;;;;;;5054631;28;20052;-72
2023/01/23 07:36:37;;;;;;;53.30;32.05;;;5.00;99.90;;;;;;5053014;28;20023;-72
2023/01/23 07:39:03;;;;;;;58.40;32.33;;;5.00;99.90;;;;;;5054592;28;20511;-72
2023/01/23 07:41:29;;;;;;;47.53;27.73;;;5.10;99.90;;;;;;5046558;28;20027;-72
2023/01/23 07:43:55;;;;;;;46.08;27.58;;;5.20;99.90;;;;;;5059880;28;20074;-73
2023/01/23 07:46:24;;;;;;;48.97;26.30;;;5.30;99.90;;;;;;5057700;28;20025;-73
2023/01/23 07:48:50;;;;;;;46.00;26.90;;;5.40;99.90;;;;;;5033139;28;20033;-72
2023/01/23 07:51:16;;;;;;;47.55;28.10;;;5.40;99.90;;;;;;5037778;28;20021;-72
2023/01/23 07:53:42;;;;;;;48.65;29.33;;;5.50;99.90;;;;;;5031423;28;20366;-71
2023/01/23 07:56:07;;;;;;;42.72;25.67;;;5.60;99.90;;;;;;5046985;28;20463;-73
2023/01/23 07:58:33;;;;;;;37.20;24.10;;;5.60;99.90;;;;;;5052422;28;20024;-72
2023/01/23 08:01:05;;;;;;;46.80;30.88;;;5.70;99.90;;;;;;5052444;28;20429;-72
2023/01/23 08:03:31;;;;;;;48.40;29.27;;;5.70;99.90;;;;;;5040324;28;20030;-72
2023/01/23 08:05:58;;;;;;;40.17;26.42;;;5.70;99.90;;;;;;5058846;28;20093;-72
2023/01/23 08:08:24;;;;;;;40.78;24.88;;;5.80;99.90;;;;;;5048910;28;20025;-72
2023/01/23 08:10:50;;;;;;;35.80;21.90;;;5.80;99.90;;;;;;5044749;28;20046;-72
2023/01/23 08:13:16;;;;;;;40.90;25.40;;;5.90;99.90;;;;;;5053440;28;20025;-72
2023/01/23 08:15:41;;;;;;;34.92;21.35;;;5.90;99.90;;;;;;5053864;28;20025;-74
2023/01/23 08:18:07;;;;;;;30.90;18.70;;;5.90;99.90;;;;;;5053201;28;20040;-73
2023/01/23 08:20:33;;;;;;;36.88;20.13;;;6.00;99.90;;;;;;5053406;28;20032;-73
2023/01/23 08:23:00;;;;;;;36.08;22.77;;;6.00;99.90;;;;;;5053314;28;20029;-72
2023/01/23 08:25:27;;;;;;;33.20;19.95;;;6.00;99.90;;;;;;5053442;28;20033;-74
2023/01/23 08:27:52;;;;;;;31.98;17.00;;;6.10;99.90;;;;;;5053445;28;20052;-73
2023/01/23 08:30:18;;;;;;;32.33;18.98;;;6.10;99.90;;;;;;5053362;28;20053;-73
2023/01/23 08:32:44;;;;;;;30.27;19.38;;;6.10;99.90;;;;;;5052865;28;20029;-72
2023/01/23 08:35:10;;;;;;;29.58;18.67;;;6.10;99.90;;;;;;5053394;28;20430;-72
2023/01/23 08:37:36;;;;;;;28.10;16.88;;;6.20;99.90;;;;;;5052803;28;20060;-73
2023/01/23 08:40:03;;;;;;;33.20;20.42;;;6.20;99.90;;;;;;5053366;28;20107;-73
2023/01/23 08:42:29;;;;;;;45.75;27.67;;;6.20;99.90;;;;;;5053342;28;20372;-73
2023/01/23 08:44:55;;;;;;;30.33;19.08;;;6.30;99.90;;;;;;5053106;28;20477;-72
2023/01/23 08:47:21;;;;;;;30.90;17.73;;;6.30;99.90;;;;;;5052789;28;20028;-72
2023/01/23 08:49:46;;;;;;;25.85;16.73;;;6.40;99.90;;;;;;5052897;28;20455;-72
2023/01/23 08:52:12;;;;;;;28.45;14.73;;;6.40;99.90;;;;;;5052652;28;20374;-73
2023/01/23 08:54:38;;;;;;;28.35;16.63;;;6.40;99.90;;;;;;5052462;28;20029;-72
2023/01/23 08:57:04;;;;;;;27.05;16.00;;;6.50;99.90;;;;;;5052931;28;20434;-73
2023/01/23 08:59:30;;;;;;;21.25;13.50;;;6.50;99.90;;;;;;5052653;28;20031;-72
2023/01/23 09:01:56;;;;;;;21.95;11.77;;;6.60;99.90;;;;;;5052718;28;20115;-73
2023/01/23 09:04:22;;;;;;;21.08;13.32;;;6.60;99.90;;;;;;5052372;28;20074;-72
2023/01/23 09:06:48;;;;;;;18.77;10.95;;;6.70;99.90;;;;;;5052587;28;20033;-72
2023/01/23 09:09:14;;;;;;;22.20;10.70;;;6.80;99.90;;;;;;5052640;28;20801;-72
2023/01/23 09:11:40;;;;;;;29.25;15.27;;;6.80;99.90;;;;;;5052675;28;20369;-72
2023/01/23 09:14:06;;;;;;;26.10;15.05;;;6.90;99.90;;;;;;5052099;28;20052;-72
2023/01/23 09:16:32;;;;;;;29.52;16.85;;;6.90;99.90;;;;;;5051487;28;20017;-73
2023/01/23 09:18:58;;;;;;;23.20;13.30;;;6.90;99.90;;;;;;5051904;28;20480;-73
2023/01/23 09:21:23;;;;;;;26.27;15.65;;;6.90;99.90;;;;;;5052376;28;20053;-74
2023/01/23 09:23:49;;;;;;;21.35;13.90;;;7.00;99.90;;;;;;5052430;28;20039;-72
2023/01/23 09:26:15;;;;;;;23.52;13.25;;;7.00;99.90;;;;;;5051619;28;20028;-73
2023/01/23 09:28:41;;;;;;;23.30;14.15;;;7.00;99.90;;;;;;5052350;28;20021;-72
2023/01/23 09:31:11;;;;;;;19.35;12.23;;;7.10;99.90;;;;;;5052314;28;20025;-73
2023/01/23 09:33:38;;;;;;;18.48;11.73;;;7.10;99.90;;;;;;5052092;28;20395;-72
2023/01/23 09:36:04;;;;;;;25.55;13.10;;;7.10;99.90;;;;;;5052419;28;20035;-72
2023/01/23 09:38:32;;;;;;;18.58;10.88;;;7.20;99.90;;;;;;5052269;28;20028;-73
2023/01/23 09:40:59;;;;;;;18.98;10.80;;;7.20;99.90;;;;;;5052055;28;20025;-72
2023/01/23 09:43:31;;;;;;;20.70;11.10;;;7.20;99.90;;;;;;5052101;28;20449;-73
2023/01/23 09:46:10;;;;;;;23.33;13.25;;;7.30;99.90;;;;;;5052157;28;20033;-73
2023/01/23 09:48:46;;;;;;;20.80;11.00;;;7.30;99.90;;;;;;5039204;28;20029;-72
2023/01/23 09:51:24;;;;;;;15.40;8.93;;;7.40;99.90;;;;;;5052201;28;20039;-73
2023/01/23 09:53:53;;;;;;;20.63;8.68;;;7.50;99.90;;;;;;5051827;28;20048;-73
2023/01/23 09:56:34;;;;;;;15.27;7.95;;;7.50;99.90;;;;;;5051798;28;20029;-72
2023/01/23 09:59:09;;;;;;;18.65;9.38;;;7.60;99.90;;;;;;5051934;28;20032;-73
2023/01/23 10:01:36;;;;;;;15.25;8.50;;;7.60;99.90;;;;;;5039488;28;20033;-72
2023/01/23 10:04:02;;;;;;;19.58;12.65;;;7.70;99.90;;;;;;5051559;28;20021;-73
2023/01/23 10:06:30;;;;;;;18.83;10.80;;;7.80;99.90;;;;;;5052267;28;20036;-75
2023/01/23 10:09:10;;;;;;;9.02;5.82;;;7.90;99.90;;;;;;5051746;28;20154;-73
2023/01/23 10:12:07;;;;;;;10.30;5.55;;;7.90;99.90;;;;;;5050743;28;20037;-72
2023/01/23 10:14:51;;;;;;;12.80;6.70;;;8.00;99.90;;;;;;5052258;28;20059;-73
2023/01/23 10:17:40;;;;;;;11.82;6.35;;;8.00;99.90;;;;;;5051363;28;20104;-73
2023/01/23 10:20:09;;;;;;;17.60;10.88;;;8.10;99.90;;;;;;5051435;28;20045;-75
2023/01/23 10:22:50;;;;;;;15.10;8.65;;;8.10;99.90;;;;;;5032198;28;20100;-72
2023/01/23 10:25:20;;;;;;;21.20;11.68;;;8.20;99.90;;;;;;5047322;28;20044;-72
2023/01/23 10:27:49;;;;;;;12.52;6.55;;;8.20;99.90;;;;;;5051541;28;20029;-72
2023/01/23 10:30:25;;;;;;;16.70;9.05;;;8.30;99.90;;;;;;5051686;28;20028;-74
2023/01/23 10:33:08;;;;;;;10.63;5.68;;;8.30;99.90;;;;;;5051938;28;20032;-72
2023/01/23 10:35:49;;;;;;;12.38;6.07;;;8.30;99.90;;;;;;5051413;28;20045;-72
2023/01/23 10:38:52;;;;;;;12.15;6.13;;;8.40;99.90;;;;;;5053487;28;20106;-73
2023/01/23 10:41:20;;;;;;;14.25;7.63;;;8.50;99.90;;;;;;5050759;28;20140;-72
2023/01/23 10:43:49;;;;;;;13.05;7.10;;;8.60;99.90;;;;;;5053582;28;20021;-72
2023/01/23 10:46:22;;;;;;;13.98;7.32;;;8.70;99.90;;;;;;5054965;28;20127;-72
2023/01/23 10:48:50;;;;;;;11.65;5.70;;;8.80;99.90;;;;;;5042557;28;20407;-76
2023/01/23 10:51:26;;;;;;;12.77;5.75;;;8.80;99.90;;;;;;5054365;28;20037;-72
2023/01/23 10:54:19;;;;;;;16.10;8.50;;;8.90;99.90;;;;;;5054811;28;20033;-72
2023/01/23 10:56:53;;;;;;;14.23;7.43;;;8.90;99.90;;;;;;5045852;28;20358;-72
2023/01/23 11:00:02;;;;;;;6.82;3.90;;;9.00;99.90;;;;;;5043097;28;20269;-73
2023/01/23 11:02:31;;;;;;;12.45;6.35;;;9.00;99.90;;;;;;5047317;28;20059;-76
2023/01/23 11:04:57;;;;;;;10.85;5.30;;;9.00;99.90;;;;;;5054389;28;20028;-73
2023/01/23 11:07:26;;;;;;;9.30;4.70;;;9.00;99.90;;;;;;5053845;28;20385;-72
2023/01/23 11:09:53;;;;;;;8.13;4.32;;;9.00;99.90;;;;;;5054658;28;20025;-73
2023/01/23 11:12:31;;;;;;;10.23;5.47;;;9.00;99.90;;;;;;5054430;28;20029;-73
2023/01/23 11:15:26;;;;;;;11.68;6.13;;;9.10;99.90;;;;;;5054548;28;20076;-73
2023/01/23 11:17:56;;;;;;;12.07;6.00;;;9.10;99.90;;;;;;5043733;28;20116;-73
2023/01/23 11:20:36;;;;;;;7.65;4.43;;;9.20;99.90;;;;;;5054648;28;20049;-71
2023/01/23 11:23:02;;;;;;;25.42;11.25;;;9.30;99.90;;;;;;5054239;28;20032;-73
2023/01/23 11:25:30;;;;;;;19.73;9.40;;;9.40;99.90;;;;;;5049734;28;20022;-72
2023/01/23 11:28:02;;;;;;;17.30;8.73;;;9.40;99.90;;;;;;5054273;28;20448;-72
2023/01/23 11:30:31;;;;;;;16.20;6.88;;;9.40;99.90;;;;;;5043493;28;20029;-72
2023/01/23 11:33:03;;;;;;;11.35;4.55;;;9.40;99.90;;;;;;5069532;28;20112;-73
2023/01/23 11:35:41;;;;;;;9.73;4.55;;;9.40;99.90;;;;;;5052802;28;20451;-73
2023/01/23 11:38:10;;;;;;;10.60;5.50;;;9.40;99.90;;;;;;5053436;28;20094;-73
2023/01/23 11:40:36;;;;;;;8.93;3.67;;;9.40;99.90;;;;;;5053810;28;20029;-73
2023/01/23 11:43:02;;;;;;;10.23;4.45;;;9.50;99.90;;;;;;5052976;28;20056;-74
2023/01/23 11:45:58;;;;;;;8.73;2.95;;;9.50;99.90;;;;;;5053612;28;20063;-73
2023/01/23 11:49:13;;;;;;;7.45;3.72;;;9.50;99.90;;;;;;5007571;28;20071;-73
2023/01/23 11:51:42;;;;;;;7.07;3.08;;;9.50;99.90;;;;;;4992096;28;20034;-73
2023/01/23 11:54:28;;;;;;;10.90;4.60;;;9.40;99.90;;;;;;4992014;28;20069;-74
2023/01/23 11:56:59;;;;;;;5.72;3.45;;;9.40;99.90;;;;;;4992656;28;20070;-73
2023/01/23 11:59:48;;;;;;;6.00;2.97;;;9.50;99.90;;;;;;4982294;28;20034;-72
2023/01/23 12:02:30;;;;;;;4.57;2.67;;;9.50;99.90;;;;;;4952949;28;20039;-72
2023/01/23 12:05:01;;;;;;;9.38;3.17;;;9.50;99.90;;;;;;4956900;28;20047;-72
2023/01/23 12:07:29;;;;;;;6.18;2.88;;;9.50;99.90;;;;;;4959204;28;20156;-73
2023/01/23 12:10:28;;;;;;;8.32;3.67;;;9.50;99.90;;;;;;4969493;28;20042;-73
2023/01/23 12:13:12;;;;;;;5.45;2.47;;;9.50;99.90;;;;;;4967961;28;20090;-73
2023/01/23 12:16:13;;;;;;;11.52;4.70;;;9.50;99.90;;;;;;4969205;28;20053;-72
2023/01/23 12:19:04;;;;;;;16.50;6.50;;;9.50;99.90;;;;;;4924116;29;20079;-73
2023/01/23 12:21:41;;;;;;;13.57;7.00;;;9.50;99.90;;;;;;4936080;29;20047;-75
2023/01/23 12:24:31;;;;;;;20.23;9.48;;;9.50;99.90;;;;;;4952136;28;20031;-72
2023/01/23 12:27:40;;;;;;;7.82;3.83;;;9.50;99.90;;;;;;4972092;28;20088;-72
2023/01/23 12:30:27;;;;;;;25.50;15.23;;;9.50;99.90;;;;;;4972440;28;20506;-72
2023/01/23 12:33:23;;;;;;;25.00;14.60;;;9.50;99.90;;;;;;4971948;28;20049;-72
2023/01/23 12:35:57;;;;;;;14.88;7.32;;;9.50;99.90;;;;;;4972089;28;20086;-72
2023/01/23 12:38:38;;;;;;;;;;;9.30;99.90;;;;;;4974821;28;20038;-72
2023/01/23 12:41:24;;;;;;;19.27;10.10;;;9.40;99.90;;;;;;4991286;28;19972;-72
2023/01/23 12:44:00;;;;;;;19.95;10.98;;;9.30;99.90;;;;;;4991231;28;20372;-73
2023/01/23 12:46:42;;;;;;;24.77;14.65;;;9.20;99.90;;;;;;4989532;28;20474;-73
2023/01/23 12:49:16;;;;;;;24.60;14.13;;;9.20;99.90;;;;;;4990484;28;20026;-72
2023/01/23 12:51:49;;;;;;;27.33;13.20;;;9.20;99.90;;;;;;4991466;28;20037;-71
2023/01/23 12:54:23;;;;;;;23.35;11.07;;;9.30;99.90;;;;;;5016996;28;20041;-72
2023/01/23 12:56:50;;;;;;;21.90;10.30;;;9.20;99.90;;;;;;5052551;28;20086;-72
2023/01/23 13:00:00;;;;;;;19.35;9.93;;;9.20;99.90;;;;;;5052319;28;20021;-71
2023/01/23 13:02:41;;;;;;;12.38;6.30;;;9.10;99.90;;;;;;4990355;28;20050;-72